createdAt,value
2023-03-07T00:00:37.548Z,16.8
2023-03-07T00:01:51.955Z,10.7
2023-03-07T00:03:06.287Z,17.9
2023-03-07T00:04:20.558Z,17.6
2023-03-07T00:05:34.855Z,11.4
2023-03-07T00:06:49.257Z,13.1
2023-03-07T00:08:03.586Z,16.5
2023-03-07T00:09:17.857Z,14.9
2023-03-07T00:10:32.139Z,11.8
2023-03-07T00:11:46.556Z,10.4
2023-03-07T00:13:00.866Z,9.9
2023-03-07T00:14:15.156Z,13.8
2023-03-07T00:15:29.439Z,16.7
2023-03-07T00:16:43.850Z,11.4
2023-03-07T00:17:58.172Z,10.6
2023-03-07T00:19:12.457Z,13.4
2023-03-07T00:20:26.731Z,12.9
2023-03-07T00:21:41.195Z,12.8
2023-03-07T00:22:55.533Z,11.5
2023-03-07T00:24:08.000Z,15.2
2023-03-07T00:25:23.150Z,8.9
2023-03-07T00:26:37.574Z,15.5
2023-03-07T00:27:51.893Z,14.3
2023-03-07T00:30:20.398Z,14.2
2023-03-07T00:31:34.624Z,16.7
2023-03-07T00:32:48.983Z,17
2023-03-07T00:34:03.216Z,11.9
2023-03-07T00:35:17.494Z,7.5
2023-03-07T00:36:31.832Z,16.6
2023-03-07T00:37:46.110Z,12.4
2023-03-07T00:39:00.507Z,13.4
2023-03-07T00:40:14.830Z,11
2023-03-07T00:41:29.109Z,11.1
2023-03-07T00:42:43.408Z,7.2
2023-03-07T00:43:57.810Z,15.1
2023-03-07T00:45:12.132Z,13.4
2023-03-07T00:46:26.408Z,10.1
2023-03-07T00:47:40.690Z,12.3
2023-03-07T00:48:55.100Z,13.7
2023-03-07T00:50:09.420Z,13.4
2023-03-07T00:51:23.703Z,18.3
2023-03-07T00:52:37.993Z,12.9
2023-03-07T00:53:52.391Z,17.6
2023-03-07T00:55:06.779Z,17.1
2023-03-07T00:56:20.154Z,10.6
2023-03-07T00:57:33.504Z,16.1
2023-03-07T00:58:47.841Z,14.4
2023-03-07T01:00:02.112Z,15.5
2023-03-07T01:02:30.808Z,13.6
2023-03-07T01:03:45.118Z,11.6
2023-03-07T01:04:59.410Z,13.2
2023-03-07T01:06:13.689Z,15.6
2023-03-07T01:07:28.090Z,11.5
2023-03-07T01:08:42.409Z,8.6
2023-03-07T01:09:56.697Z,16.7
2023-03-07T01:11:10.978Z,16
2023-03-07T01:12:25.387Z,13.1
2023-03-07T01:13:39.705Z,12.7
2023-03-07T01:14:53.988Z,13.7
2023-03-07T01:16:08.277Z,14.1
2023-03-07T01:17:22.681Z,14.8
2023-03-07T01:18:37.002Z,10
2023-03-07T01:19:51.281Z,14.4
2023-03-07T01:21:05.573Z,17.7
2023-03-07T01:22:19.968Z,14.2
2023-03-07T01:23:34.297Z,13.7
2023-03-07T01:24:48.570Z,13.8
2023-03-07T01:26:02.861Z,10.5
2023-03-07T01:27:17.258Z,12.3
2023-03-07T01:28:31.641Z,13.5
2023-03-07T01:29:45.049Z,10.3
2023-03-07T01:30:58.403Z,15.4
2023-03-07T01:32:12.713Z,15.2
2023-03-07T01:33:27.006Z,10.5
2023-03-07T01:34:41.270Z,15.1
2023-03-07T01:35:55.688Z,13.8
2023-03-07T01:37:10.005Z,13.4
2023-03-07T01:38:24.299Z,11
2023-03-07T01:39:38.562Z,15.8
2023-03-07T01:40:52.984Z,10.8
2023-03-07T01:42:07.310Z,8.3
2023-03-07T01:43:21.586Z,10.9
2023-03-07T01:44:35.857Z,14.1
2023-03-07T01:45:50.274Z,10.7
2023-03-07T01:47:04.595Z,17.6
2023-03-07T01:48:18.875Z,9.6
2023-03-07T01:49:33.155Z,11.2
2023-03-07T01:50:47.573Z,11.4
2023-03-07T01:52:01.882Z,11.9
2023-03-07T01:53:16.167Z,8.9
2023-03-07T01:54:30.452Z,11.9
2023-03-07T01:55:44.849Z,11.8
2023-03-07T01:56:59.187Z,11.4
2023-03-07T01:58:13.467Z,12.9
2023-03-07T01:59:27.000Z,10.7
2023-03-07T02:00:42.157Z,17.7
2023-03-07T02:01:56.521Z,8.5
2023-03-07T02:03:09.918Z,10.9
2023-03-07T02:04:24.264Z,11.8
2023-03-07T02:05:38.655Z,13.4
2023-03-07T02:06:53.004Z,14.5
2023-03-07T02:08:07.333Z,13.6
2023-03-07T02:09:20.689Z,13.4
2023-03-07T02:10:35.102Z,10.3
2023-03-07T02:11:49.423Z,12.9
2023-03-07T02:13:03.697Z,9.8
2023-03-07T02:14:17.971Z,13.1
2023-03-07T02:15:32.392Z,11.1
2023-03-07T02:16:46.716Z,10.8
2023-03-07T02:19:15.262Z,10.6
2023-03-07T02:20:29.677Z,8.9
2023-03-07T02:21:43.996Z,8.4
2023-03-07T02:22:58.280Z,12.7
2023-03-07T02:24:12.569Z,13
2023-03-07T02:25:26.973Z,9.4
2023-03-07T02:26:41.289Z,10.4
2023-03-07T02:27:55.579Z,9
2023-03-07T02:29:09.848Z,12.9
2023-03-07T02:30:24.268Z,9.8
2023-03-07T02:31:38.588Z,5.3
2023-03-07T02:32:52.863Z,10.5
2023-03-07T02:34:07.153Z,5.5
2023-03-07T02:35:21.548Z,11.1
2023-03-07T02:36:35.881Z,8.8
2023-03-07T02:37:50.154Z,6.3
2023-03-07T02:39:04.439Z,6.7
2023-03-07T02:40:18.917Z,5.4
2023-03-07T02:41:33.236Z,6.6
2023-03-07T02:42:46.602Z,8.5
2023-03-07T02:44:00.880Z,4.8
2023-03-07T02:45:15.274Z,6.5
2023-03-07T02:46:29.606Z,5.4
2023-03-07T02:47:43.882Z,7
2023-03-07T02:48:58.168Z,7
2023-03-07T02:50:12.573Z,5.8
2023-03-07T02:51:26.906Z,9.6
2023-03-07T02:52:41.182Z,6.5
2023-03-07T02:53:55.467Z,7.9
2023-03-07T02:55:09.866Z,5.8
2023-03-07T02:56:24.199Z,9.2
2023-03-07T02:57:38.481Z,8.1
2023-03-07T02:58:52.761Z,6.3
2023-03-07T03:00:07.163Z,6.7
2023-03-07T03:01:21.491Z,5.2
2023-03-07T03:02:35.757Z,4
2023-03-07T03:03:50.048Z,7.4
2023-03-07T03:05:04.455Z,6.7
2023-03-07T03:06:18.756Z,5.8
2023-03-07T03:07:33.033Z,3.2
2023-03-07T03:08:47.307Z,8
2023-03-07T03:10:01.712Z,6.5
2023-03-07T03:11:16.047Z,7.7
2023-03-07T03:12:30.324Z,7.8
2023-03-07T03:13:44.650Z,5.8
2023-03-07T03:14:59.063Z,4.1
2023-03-07T03:16:13.409Z,7.4
2023-03-07T03:17:26.761Z,8.4
2023-03-07T03:18:41.034Z,8.2
2023-03-07T03:19:55.440Z,7.8
2023-03-07T03:21:09.760Z,5.1
2023-03-07T03:22:24.041Z,5.9
2023-03-07T03:23:38.336Z,5
2023-03-07T03:24:52.742Z,7.3
2023-03-07T03:26:07.060Z,3.8
2023-03-07T03:27:21.328Z,5.2
2023-03-07T03:28:35.617Z,9.2
2023-03-07T03:31:04.354Z,5.9
2023-03-07T03:32:18.630Z,6.7
2023-03-07T03:33:32.914Z,4.3
2023-03-07T03:34:47.312Z,8.3
2023-03-07T03:36:01.641Z,4
2023-03-07T03:37:15.928Z,6.2
2023-03-07T03:38:30.204Z,6
2023-03-07T03:39:44.606Z,4.2
2023-03-07T03:40:58.937Z,3.9
2023-03-07T03:42:13.209Z,5.8
2023-03-07T03:43:27.495Z,4.2
2023-03-07T03:44:41.911Z,7.7
2023-03-07T03:45:56.218Z,5
2023-03-07T03:47:10.504Z,7.2
2023-03-07T03:48:24.856Z,5
2023-03-07T03:49:39.250Z,9.5
2023-03-07T03:50:53.598Z,8
2023-03-07T03:52:06.931Z,8
2023-03-07T03:53:21.218Z,7.6
2023-03-07T03:54:35.638Z,4.7
2023-03-07T03:55:49.943Z,5.8
2023-03-07T03:58:18.522Z,9.8
2023-03-07T03:59:32.911Z,4.3
2023-03-07T04:00:47.234Z,5.8
2023-03-07T04:02:01.516Z,6.7
2023-03-07T04:03:15.803Z,5.3
2023-03-07T04:04:30.211Z,7.5
2023-03-07T04:05:44.527Z,10.1
2023-03-07T04:06:58.808Z,8.2
2023-03-07T04:08:13.097Z,11
2023-03-07T04:09:27.498Z,7.1
2023-03-07T04:10:41.824Z,9.9
2023-03-07T04:11:56.114Z,8.3
2023-03-07T04:13:10.384Z,6.9
2023-03-07T04:14:24.799Z,7
2023-03-07T04:16:53.400Z,9.2
2023-03-07T04:18:07.673Z,8
2023-03-07T04:20:36.412Z,9.2
2023-03-07T04:21:50.833Z,6.8
2023-03-07T04:24:19.445Z,9.5
2023-03-07T04:25:33.846Z,8.7
2023-03-07T04:26:48.170Z,6.6
2023-03-07T04:28:02.463Z,7.8
2023-03-07T04:29:16.742Z,6.1
2023-03-07T04:30:31.145Z,8.2
2023-03-07T04:31:45.465Z,5.8
2023-03-07T04:32:59.738Z,6.3
2023-03-07T04:34:14.023Z,7.9
2023-03-07T04:35:28.431Z,3.1
2023-03-07T04:36:42.765Z,3.3
2023-03-07T04:37:57.042Z,3.4
2023-03-07T04:39:11.324Z,4
2023-03-07T04:40:25.728Z,3.9
2023-03-07T04:41:40.048Z,5.6
2023-03-07T04:42:54.339Z,2.2
2023-03-07T04:44:08.562Z,3.6
2023-03-07T04:45:22.912Z,2.7
2023-03-07T04:46:37.248Z,3.2
2023-03-07T04:47:51.522Z,2.2
2023-03-07T04:49:05.765Z,2.1
2023-03-07T04:50:20.126Z,1.7
2023-03-07T04:51:34.446Z,2.4
2023-03-07T04:52:48.773Z,3.6
2023-03-07T04:54:02.161Z,2.3
2023-03-07T04:55:16.448Z,2
2023-03-07T04:56:29.797Z,2.6
2023-03-07T04:57:44.086Z,1.9
2023-03-07T04:58:58.481Z,2.8
2023-03-07T05:00:12.810Z,2.4
2023-03-07T05:01:27.084Z,1.6
2023-03-07T05:02:41.380Z,6.6
2023-03-07T05:03:55.744Z,2.2
2023-03-07T05:05:10.061Z,2.3
2023-03-07T05:07:38.667Z,2.4
2023-03-07T05:08:52.948Z,3.4
2023-03-07T05:10:07.352Z,3.2
2023-03-07T05:11:21.668Z,2.5
2023-03-07T05:12:35.953Z,4.1
2023-03-07T05:13:50.244Z,3.4
2023-03-07T05:15:04.649Z,2.1
2023-03-07T05:16:18.959Z,2.8
2023-03-07T05:17:33.249Z,2.2
2023-03-07T05:18:47.522Z,2.5
2023-03-07T05:20:01.877Z,3
2023-03-07T05:21:16.117Z,3.1
2023-03-07T05:22:30.349Z,3
2023-03-07T05:23:44.573Z,2.7
2023-03-07T05:24:58.809Z,1.8
2023-03-07T05:26:13.110Z,2.6
2023-03-07T05:27:27.411Z,2.4
2023-03-07T05:28:40.709Z,3.2
2023-03-07T05:29:54.926Z,2.6
2023-03-07T05:31:09.222Z,4.1
2023-03-07T05:32:23.527Z,4
2023-03-07T05:33:37.812Z,3.9
2023-03-07T05:34:52.088Z,1.8
2023-03-07T05:36:06.498Z,2.3
2023-03-07T05:37:20.732Z,2
2023-03-07T05:38:34.959Z,4.9
2023-03-07T05:39:49.306Z,2.2
2023-03-07T05:41:03.551Z,2
2023-03-07T05:42:17.849Z,4.3
2023-03-07T05:43:32.087Z,1.8
2023-03-07T05:44:46.319Z,2.7
2023-03-07T05:46:00.544Z,3.4
2023-03-07T05:47:14.776Z,4.3
2023-03-07T05:48:29.070Z,2.9
2023-03-07T05:49:43.310Z,2.2
2023-03-07T05:50:57.534Z,3.2
2023-03-07T05:52:11.770Z,2
2023-03-07T05:53:26.004Z,4.5
2023-03-07T05:54:40.300Z,5.7
2023-03-07T05:55:54.537Z,2.1
2023-03-07T05:57:08.768Z,2.2
2023-03-07T05:58:22.992Z,2.5
2023-03-07T05:59:37.224Z,3
2023-03-07T06:00:51.517Z,2.2
2023-03-07T06:02:05.749Z,2.5
2023-03-07T06:03:19.994Z,2.4
2023-03-07T06:04:34.217Z,2.4
2023-03-07T06:05:48.438Z,2.8
2023-03-07T06:07:02.733Z,1.5
2023-03-07T06:08:16.988Z,5.2
2023-03-07T06:09:31.208Z,7.3
2023-03-07T06:11:59.663Z,2.7
2023-03-07T06:13:13.954Z,2.8
2023-03-07T06:14:28.197Z,3.2
2023-03-07T06:15:42.421Z,1.9
2023-03-07T06:16:56.654Z,2.1
2023-03-07T06:18:10.889Z,2.9
2023-03-07T06:20:39.428Z,2.8
2023-03-07T06:21:53.642Z,7.5
2023-03-07T06:23:07.878Z,3.5
2023-03-07T06:24:22.096Z,2.5
2023-03-07T06:25:36.451Z,2.6
2023-03-07T06:26:50.734Z,2.6
2023-03-07T06:28:04.033Z,2.2
2023-03-07T06:29:18.267Z,3.1
2023-03-07T06:30:32.560Z,1.8
2023-03-07T06:31:46.800Z,3.4
2023-03-07T06:33:01.037Z,4.6
2023-03-07T06:34:15.258Z,1.7
2023-03-07T06:35:29.485Z,2.6
2023-03-07T06:36:43.796Z,3.7
2023-03-07T06:37:58.029Z,4.9
2023-03-07T06:39:12.246Z,3.2
2023-03-07T06:40:26.594Z,3.9
2023-03-07T06:41:40.831Z,3.1
2023-03-07T06:42:55.135Z,3.4
2023-03-07T06:44:09.368Z,3.4
2023-03-07T06:45:23.608Z,3.6
2023-03-07T06:46:37.825Z,4.1
2023-03-07T06:47:52.044Z,4.1
2023-03-07T06:49:06.359Z,4.7
2023-03-07T06:50:20.594Z,3.6
2023-03-07T06:51:34.823Z,5.4
2023-03-07T06:54:03.278Z,3
2023-03-07T06:55:17.576Z,6
2023-03-07T06:56:31.816Z,4.5
2023-03-07T06:57:46.052Z,6.2
2023-03-07T06:59:00.269Z,6.3
2023-03-07T07:00:14.485Z,4.7
2023-03-07T07:01:28.796Z,4.6
2023-03-07T07:02:43.046Z,2.8
2023-03-07T07:03:57.255Z,5.1
2023-03-07T07:05:11.494Z,3.5
2023-03-07T07:06:25.708Z,1.9
2023-03-07T07:08:54.267Z,3.5
2023-03-07T07:10:08.485Z,3.3
2023-03-07T07:11:22.715Z,2.5
2023-03-07T07:12:36.940Z,3.2
2023-03-07T07:13:51.228Z,1.9
2023-03-07T07:15:05.474Z,4.5
2023-03-07T07:16:19.704Z,3.1
2023-03-07T07:17:33.930Z,1.9
2023-03-07T07:18:48.165Z,4
2023-03-07T07:20:02.455Z,1.9
2023-03-07T07:21:16.701Z,3.6
2023-03-07T07:22:30.928Z,2
2023-03-07T07:23:45.160Z,3.7
2023-03-07T07:24:59.382Z,2.4
2023-03-07T07:26:13.741Z,2.7
2023-03-07T07:27:28.031Z,2.8
2023-03-07T07:28:41.353Z,2.6
2023-03-07T07:29:55.636Z,2.9
2023-03-07T07:31:09.946Z,2.2
2023-03-07T07:32:24.212Z,1.6
2023-03-07T07:33:37.507Z,2.3
2023-03-07T07:34:51.749Z,1.6
2023-03-07T07:36:06.048Z,2.1
2023-03-07T07:37:20.280Z,1.6
2023-03-07T07:38:34.506Z,1.9
2023-03-07T07:39:48.734Z,3.4
2023-03-07T07:41:02.958Z,2.3
2023-03-07T07:42:17.270Z,2
2023-03-07T07:43:31.503Z,2.2
2023-03-07T07:44:45.729Z,2.4
2023-03-07T07:45:59.959Z,2.6
2023-03-07T07:48:28.492Z,2.4
2023-03-07T07:49:42.736Z,1.6
2023-03-07T07:50:56.952Z,1.5
2023-03-07T07:52:11.191Z,2.2
2023-03-07T07:53:25.409Z,1.9
2023-03-07T07:54:39.700Z,1.5
2023-03-07T07:55:53.947Z,1.8
2023-03-07T07:57:08.183Z,1.7
2023-03-07T07:58:22.402Z,3
2023-03-07T07:59:36.761Z,2.7
2023-03-07T08:00:51.059Z,2.8
2023-03-07T08:02:05.300Z,1.4
2023-03-07T08:03:19.514Z,1.9
2023-03-07T08:04:33.755Z,1.4
2023-03-07T08:05:47.983Z,1
2023-03-07T08:07:02.284Z,1.4
2023-03-07T08:08:16.518Z,2.1
2023-03-07T08:09:30.740Z,1.4
2023-03-07T08:10:44.975Z,1.4
2023-03-07T08:11:59.207Z,1
2023-03-07T08:13:13.494Z,1.2
2023-03-07T08:14:27.747Z,2.1
2023-03-07T08:15:41.965Z,1
2023-03-07T08:16:56.199Z,2.4
2023-03-07T08:18:10.413Z,2.3
2023-03-07T08:19:24.716Z,1
2023-03-07T08:20:38.951Z,1.2
2023-03-07T08:21:53.196Z,2.3
2023-03-07T08:23:07.423Z,1.8
2023-03-07T08:24:21.643Z,1.2
2023-03-07T08:25:35.939Z,1.1
2023-03-07T08:26:50.176Z,1.2
2023-03-07T08:28:04.418Z,1.3
2023-03-07T08:29:18.633Z,1.1
2023-03-07T08:30:32.868Z,1.4
2023-03-07T08:31:47.171Z,1.3
2023-03-07T08:33:01.403Z,1.2
2023-03-07T08:34:15.642Z,1.7
2023-03-07T08:35:29.853Z,1.6
2023-03-07T08:36:44.078Z,1.4
2023-03-07T08:37:58.389Z,2
2023-03-07T08:39:12.621Z,1.1
2023-03-07T08:40:26.853Z,6
2023-03-07T08:41:41.073Z,1.4
2023-03-07T08:42:55.307Z,1.2
2023-03-07T08:44:09.616Z,1.7
2023-03-07T08:45:23.905Z,1.6
2023-03-07T08:46:37.243Z,1.3
2023-03-07T08:47:50.601Z,1.2
2023-03-07T08:49:04.884Z,1.3
2023-03-07T08:50:18.240Z,1.4
2023-03-07T08:51:31.557Z,1.4
2023-03-07T08:52:45.841Z,1.4
2023-03-07T08:53:59.145Z,1.3
2023-03-07T08:55:13.359Z,1.7
2023-03-07T08:56:27.674Z,1.4
2023-03-07T08:57:41.906Z,1.7
2023-03-07T08:58:56.130Z,1.4
2023-03-07T09:00:10.365Z,1.6
2023-03-07T09:01:24.587Z,1.4
2023-03-07T09:02:38.897Z,1.4
2023-03-07T09:03:53.143Z,1.5
2023-03-07T09:05:07.355Z,1.2
2023-03-07T09:06:21.586Z,1.5
2023-03-07T09:07:35.814Z,1.9
2023-03-07T09:08:50.104Z,1.2
2023-03-07T09:10:04.346Z,3.7
2023-03-07T09:11:18.590Z,3.5
2023-03-07T09:12:32.807Z,1.8
2023-03-07T09:13:47.038Z,3.4
2023-03-07T09:15:01.331Z,1.3
2023-03-07T09:16:15.573Z,1.8
2023-03-07T09:17:29.805Z,2.3
2023-03-07T09:19:58.258Z,2.4
2023-03-07T09:21:12.547Z,1.8
2023-03-07T09:22:26.804Z,2.3
2023-03-07T09:23:41.017Z,2.4
2023-03-07T09:24:55.317Z,1.9
2023-03-07T09:26:08.633Z,3.3
2023-03-07T09:27:22.929Z,1.6
2023-03-07T09:28:36.214Z,2.4
2023-03-07T09:29:50.448Z,1.7
2023-03-07T09:31:04.751Z,1.2
2023-03-07T09:32:18.988Z,1.6
2023-03-07T09:33:33.209Z,2.1
2023-03-07T09:34:47.442Z,1.7
2023-03-07T09:36:01.676Z,2.2
2023-03-07T09:37:15.975Z,1.8
2023-03-07T09:38:30.213Z,2.9
2023-03-07T09:39:44.432Z,1.7
2023-03-07T09:40:58.663Z,1.6
2023-03-07T09:42:12.885Z,1.5
2023-03-07T09:43:27.199Z,1.6
2023-03-07T09:44:41.431Z,1.6
2023-03-07T09:45:55.659Z,1.5
2023-03-07T09:47:09.885Z,1.4
2023-03-07T09:48:24.114Z,1.9
2023-03-07T09:49:38.413Z,1.6
2023-03-07T09:50:52.666Z,2.2
2023-03-07T09:52:06.887Z,1.5
2023-03-07T09:53:21.117Z,1.7
2023-03-07T09:54:35.338Z,1.7
2023-03-07T09:55:49.635Z,1.5
2023-03-07T09:57:03.879Z,3.5
2023-03-07T09:58:18.107Z,1.3
2023-03-07T09:59:32.386Z,1.7
2023-03-07T10:00:46.669Z,1.7
2023-03-07T10:02:00.973Z,2.4
2023-03-07T10:03:15.258Z,2.3
2023-03-07T10:04:28.555Z,1.5
2023-03-07T10:05:42.796Z,1.8
2023-03-07T10:06:57.095Z,1.4
2023-03-07T10:08:11.332Z,2.3
2023-03-07T10:09:25.560Z,1.5
2023-03-07T10:10:39.786Z,1.9
2023-03-07T10:11:54.006Z,1.6
2023-03-07T10:13:08.309Z,2.2
2023-03-07T10:14:22.555Z,2.6
2023-03-07T10:15:36.778Z,1.6
2023-03-07T10:16:51.011Z,2
2023-03-07T10:18:05.239Z,4.2
2023-03-07T10:19:19.527Z,2
2023-03-07T10:20:33.772Z,2.6
2023-03-07T10:21:48.008Z,3.2
2023-03-07T10:23:02.227Z,1.7
2023-03-07T10:24:16.456Z,1.8
2023-03-07T10:25:30.754Z,1.7
2023-03-07T10:26:44.987Z,1.6
2023-03-07T10:27:59.224Z,1.9
2023-03-07T10:29:13.453Z,1.4
2023-03-07T10:30:27.668Z,2.2
2023-03-07T10:31:41.983Z,2.4
2023-03-07T10:32:56.224Z,1.5
2023-03-07T10:34:10.452Z,2.2
2023-03-07T10:35:24.722Z,1.8
2023-03-07T10:36:38.028Z,1.7
2023-03-07T10:37:52.269Z,1.4
2023-03-07T10:39:06.486Z,1.6
2023-03-07T10:40:20.725Z,1.6
2023-03-07T10:41:34.948Z,1.5
2023-03-07T10:42:49.241Z,1.8
2023-03-07T10:44:03.488Z,1.6
2023-03-07T10:45:17.723Z,2.2
2023-03-07T10:46:31.946Z,1.6
2023-03-07T10:47:46.171Z,1.6
2023-03-07T10:49:00.465Z,1.5
2023-03-07T10:50:14.710Z,3.3
2023-03-07T10:51:28.936Z,1.7
2023-03-07T10:52:43.168Z,1.7
2023-03-07T10:53:57.387Z,2.1
2023-03-07T10:55:11.683Z,1.6
2023-03-07T10:56:25.930Z,2
2023-03-07T10:57:40.162Z,1.7
2023-03-07T10:58:54.394Z,2.5
2023-03-07T11:00:08.606Z,1.7
2023-03-07T11:01:22.913Z,1.7
2023-03-07T11:02:37.161Z,1.6
2023-03-07T11:03:51.387Z,2.2
2023-03-07T11:05:05.617Z,1.9
2023-03-07T11:06:19.830Z,1.4
2023-03-07T11:07:34.197Z,1.8
2023-03-07T11:08:48.489Z,1.5
2023-03-07T11:10:01.783Z,2.1
2023-03-07T11:11:16.007Z,1.6
2023-03-07T11:12:30.295Z,1.5
2023-03-07T11:13:44.547Z,1.5
2023-03-07T11:14:58.771Z,1.8
2023-03-07T11:16:12.997Z,1.5
2023-03-07T11:17:27.214Z,4.2
2023-03-07T11:18:41.522Z,2.9
2023-03-07T11:19:55.771Z,4.6
2023-03-07T11:21:09.996Z,5.7
2023-03-07T11:22:24.225Z,5.1
2023-03-07T11:23:38.442Z,19.2
2023-03-07T11:24:52.745Z,11.9
2023-03-07T11:27:21.215Z,2.1
2023-03-07T11:28:35.436Z,1.5
2023-03-07T11:29:49.673Z,6.4
2023-03-07T11:32:18.209Z,1.9
2023-03-07T11:33:32.444Z,1.5
2023-03-07T11:34:46.663Z,1.7
2023-03-07T11:36:00.898Z,1.4
2023-03-07T11:37:15.193Z,2.7
2023-03-07T11:38:29.432Z,1.6
2023-03-07T11:39:43.649Z,2.4
2023-03-07T11:40:57.946Z,1.9
2023-03-07T11:42:11.269Z,1.2
2023-03-07T11:43:25.566Z,2.8
2023-03-07T11:44:38.859Z,1.6
2023-03-07T11:45:53.084Z,2.9
2023-03-07T11:47:07.370Z,1.4
2023-03-07T11:48:21.616Z,1.4
2023-03-07T11:49:35.848Z,1.2
2023-03-07T11:52:04.302Z,1
2023-03-07T11:53:18.594Z,1.5
2023-03-07T11:54:32.837Z,1.5
2023-03-07T11:55:47.074Z,1.9
2023-03-07T11:57:01.297Z,3.6
2023-03-07T11:58:15.524Z,2
2023-03-07T12:00:44.062Z,1.2
2023-03-07T12:01:58.299Z,2.6
2023-03-07T12:03:12.515Z,1.5
2023-03-07T12:04:26.734Z,2
2023-03-07T12:05:41.051Z,2
2023-03-07T12:08:09.505Z,3.1
2023-03-07T12:09:23.743Z,2.3
2023-03-07T12:10:37.963Z,1.9
2023-03-07T12:11:52.268Z,1
2023-03-07T12:13:06.509Z,1.5
2023-03-07T12:14:20.732Z,2.9
2023-03-07T12:15:35.010Z,3.4
2023-03-07T12:16:48.361Z,2.1
2023-03-07T12:18:02.635Z,1.3
2023-03-07T12:19:16.909Z,7.3
2023-03-07T12:20:31.209Z,1.3
2023-03-07T12:21:45.486Z,3.9
2023-03-07T12:22:59.783Z,1.6
2023-03-07T12:24:14.066Z,1.1
2023-03-07T12:25:28.360Z,1.2
2023-03-07T12:26:41.698Z,1.3
2023-03-07T12:27:56.017Z,5
2023-03-07T12:29:10.296Z,4.1
2023-03-07T12:30:23.576Z,2.7
2023-03-07T12:31:37.810Z,1.4
2023-03-07T12:32:52.108Z,3
2023-03-07T12:34:06.347Z,1.3
2023-03-07T12:35:20.586Z,0.9
2023-03-07T12:36:34.803Z,1.4
2023-03-07T12:37:49.037Z,1.2
2023-03-07T12:39:03.339Z,1.2
2023-03-07T12:40:17.583Z,2
2023-03-07T12:41:31.807Z,0.8
2023-03-07T12:42:46.038Z,1
2023-03-07T12:45:14.548Z,2.3
2023-03-07T12:46:28.799Z,4
2023-03-07T12:47:43.023Z,1.4
2023-03-07T12:48:57.254Z,1.4
2023-03-07T12:50:11.470Z,2.6
2023-03-07T12:51:25.776Z,2.5
2023-03-07T12:52:40.023Z,1.9
2023-03-07T12:53:54.242Z,1.7
2023-03-07T12:55:08.469Z,1.1
2023-03-07T12:56:22.698Z,1.4
2023-03-07T12:57:36.995Z,3
2023-03-07T12:58:51.247Z,2.1
2023-03-07T13:00:05.470Z,1.4
2023-03-07T13:01:19.745Z,1.4
2023-03-07T13:02:33.053Z,0.9
2023-03-07T13:03:47.288Z,1.1
2023-03-07T13:05:01.515Z,1.3
2023-03-07T13:06:15.742Z,0.9
2023-03-07T13:07:29.965Z,1.2
2023-03-07T13:08:44.276Z,1
2023-03-07T13:09:58.511Z,1.2
2023-03-07T13:11:12.743Z,1
2023-03-07T13:12:26.967Z,0.9
2023-03-07T13:13:41.199Z,1.3
2023-03-07T13:14:55.482Z,1.8
2023-03-07T13:16:09.733Z,1
2023-03-07T13:17:23.957Z,1
2023-03-07T13:18:38.192Z,1
2023-03-07T13:19:52.405Z,1
2023-03-07T13:21:06.714Z,1.6
2023-03-07T13:22:20.946Z,2
2023-03-07T13:23:35.184Z,0.9
2023-03-07T13:24:49.408Z,1.3
2023-03-07T13:26:03.781Z,1.2
2023-03-07T13:28:32.313Z,1.9
2023-03-07T13:29:46.553Z,1.1
2023-03-07T13:31:00.776Z,1.8
2023-03-07T13:32:14.993Z,1.6
2023-03-07T13:33:29.303Z,1.3
2023-03-07T13:34:43.549Z,0.8
2023-03-07T13:35:57.764Z,2.9
2023-03-07T13:37:11.995Z,1.3
2023-03-07T13:38:26.214Z,1.1
2023-03-07T13:39:40.516Z,1
2023-03-07T13:40:54.769Z,0.9
2023-03-07T13:43:23.223Z,1.8
2023-03-07T13:44:37.446Z,2.6
2023-03-07T13:45:51.734Z,1.5
2023-03-07T13:47:05.978Z,1.3
2023-03-07T13:48:20.208Z,1.2
2023-03-07T13:49:34.443Z,0.9
2023-03-07T13:50:48.659Z,1.1
2023-03-07T13:52:02.956Z,1.6
2023-03-07T13:53:17.202Z,0.9
2023-03-07T13:54:31.434Z,2
2023-03-07T13:55:45.661Z,1.1
2023-03-07T13:56:59.950Z,1.6
2023-03-07T13:58:14.238Z,1.1
2023-03-07T13:59:28.526Z,1.2
2023-03-07T14:00:42.935Z,1.1
2023-03-07T14:01:57.217Z,1.6
2023-03-07T14:03:11.500Z,1.3
2023-03-07T14:04:25.805Z,1.2
2023-03-07T14:05:40.088Z,1.3
2023-03-07T14:06:53.385Z,2.5
2023-03-07T14:08:07.605Z,1.5
2023-03-07T14:09:21.906Z,2.2
2023-03-07T14:10:36.150Z,0.9
2023-03-07T14:13:04.597Z,1.1
2023-03-07T14:14:18.818Z,1.3
2023-03-07T14:15:33.127Z,5.3
2023-03-07T14:16:47.365Z,1.4
2023-03-07T14:18:01.597Z,1.4
2023-03-07T14:19:15.822Z,0.9
2023-03-07T14:20:30.054Z,4.3
2023-03-07T14:22:58.593Z,1.8
2023-03-07T14:24:12.805Z,0.8
2023-03-07T14:25:27.037Z,1.3
2023-03-07T14:26:41.271Z,1
2023-03-07T14:27:55.561Z,1.3
2023-03-07T14:29:09.814Z,1.2
2023-03-07T14:30:24.034Z,1
2023-03-07T14:31:38.253Z,1.3
2023-03-07T14:32:52.486Z,0.9
2023-03-07T14:34:06.786Z,1.2
2023-03-07T14:35:21.023Z,1.2
2023-03-07T14:36:35.249Z,1
2023-03-07T14:37:49.550Z,1.5
2023-03-07T14:39:02.841Z,1.5
2023-03-07T14:40:17.073Z,2.7
2023-03-07T14:41:31.306Z,1.4
2023-03-07T14:42:45.537Z,1.3
2023-03-07T14:43:59.753Z,1.1
2023-03-07T14:45:14.053Z,2.6
2023-03-07T14:46:28.304Z,7.3
2023-03-07T14:47:42.523Z,1.5
2023-03-07T14:48:56.743Z,1
2023-03-07T14:50:10.982Z,1.8
2023-03-07T14:51:25.280Z,1.9
2023-03-07T14:52:39.515Z,1.4
2023-03-07T14:53:53.757Z,1.2
2023-03-07T14:56:22.203Z,2.1
2023-03-07T14:57:36.494Z,1.4
2023-03-07T14:58:50.746Z,2
2023-03-07T15:00:04.962Z,2.4
2023-03-07T15:01:19.188Z,1.2
2023-03-07T15:02:33.422Z,1.4
2023-03-07T15:03:47.723Z,1.9
2023-03-07T15:05:01.957Z,1
2023-03-07T15:06:16.190Z,1.1
2023-03-07T15:07:30.422Z,0.8
2023-03-07T15:08:44.645Z,0.7
2023-03-07T15:09:59.001Z,0.8
2023-03-07T15:11:13.285Z,0.5
2023-03-07T15:12:26.584Z,0.9
2023-03-07T15:13:40.798Z,0.7
2023-03-07T15:14:55.105Z,0.8
2023-03-07T15:16:09.339Z,0.7
2023-03-07T15:17:23.574Z,0.9
2023-03-07T15:18:37.799Z,0.7
2023-03-07T15:19:52.026Z,0.9
2023-03-07T15:21:06.324Z,0.7
2023-03-07T15:22:20.575Z,0.7
2023-03-07T15:23:34.792Z,0.7
2023-03-07T15:24:49.023Z,0.7
2023-03-07T15:26:03.257Z,1
2023-03-07T15:27:17.548Z,1.2
2023-03-07T15:28:31.801Z,0.7
2023-03-07T15:29:46.018Z,0.8
2023-03-07T15:31:00.241Z,0.9
2023-03-07T15:32:14.465Z,1
2023-03-07T15:33:28.779Z,0.7
2023-03-07T15:34:43.009Z,1
2023-03-07T15:37:11.477Z,0.9
2023-03-07T15:38:25.704Z,0.7
2023-03-07T15:39:39.985Z,0.9
2023-03-07T15:40:54.242Z,0.8
2023-03-07T15:42:08.462Z,1.1
2023-03-07T15:43:22.738Z,1.3
2023-03-07T15:44:36.074Z,1.1
2023-03-07T15:45:50.358Z,0.8
2023-03-07T15:47:03.659Z,1.1
2023-03-07T15:48:17.895Z,0.9
2023-03-07T15:49:32.179Z,0.9
2023-03-07T15:50:46.425Z,0.9
2023-03-07T15:52:00.654Z,0.9
2023-03-07T15:53:14.881Z,1.5
2023-03-07T15:54:29.103Z,1
2023-03-07T15:55:43.419Z,1.5
2023-03-07T15:56:57.651Z,0.9
2023-03-07T15:58:11.881Z,1.1
2023-03-07T15:59:26.112Z,2.2
2023-03-07T16:00:40.321Z,0.9
2023-03-07T16:01:54.625Z,1
2023-03-07T16:03:08.881Z,1.1
2023-03-07T16:04:23.106Z,1
2023-03-07T16:05:37.317Z,0.8
2023-03-07T16:06:51.560Z,1.1
2023-03-07T16:08:05.850Z,0.8
2023-03-07T16:09:20.099Z,1.1
2023-03-07T16:10:34.317Z,0.6
2023-03-07T16:11:48.541Z,0.8
2023-03-07T16:13:02.769Z,0.7
2023-03-07T16:14:17.066Z,0.7
2023-03-07T16:15:31.317Z,0.8
2023-03-07T16:16:45.535Z,1.2
2023-03-07T16:17:59.829Z,0.8
2023-03-07T16:19:13.152Z,0.9
2023-03-07T16:20:27.447Z,0.6
2023-03-07T16:21:41.822Z,0.7
2023-03-07T16:22:56.044Z,0.7
2023-03-07T16:24:10.277Z,0.8
2023-03-07T16:25:24.577Z,0.8
2023-03-07T16:26:38.816Z,0.8
2023-03-07T16:27:53.040Z,1
2023-03-07T16:29:07.267Z,2.6
2023-03-07T16:30:21.485Z,1.2
2023-03-07T16:31:35.786Z,0.8
2023-03-07T16:32:50.024Z,3.7
2023-03-07T16:34:04.261Z,1.3
2023-03-07T16:35:18.477Z,1.1
2023-03-07T16:36:32.713Z,1.5
2023-03-07T16:37:47.002Z,1.1
2023-03-07T16:39:01.259Z,1.9
2023-03-07T16:40:15.489Z,0.8
2023-03-07T16:41:29.701Z,0.7
2023-03-07T16:42:43.943Z,0.9
2023-03-07T16:43:58.243Z,0.8
2023-03-07T16:45:12.482Z,0.7
2023-03-07T16:46:26.710Z,0.8
2023-03-07T16:47:40.938Z,0.7
2023-03-07T16:48:55.154Z,0.8
2023-03-07T16:50:09.464Z,0.9
2023-03-07T16:51:23.705Z,1
2023-03-07T16:52:37.978Z,0.7
2023-03-07T16:53:51.274Z,0.7
2023-03-07T16:55:05.589Z,0.9
2023-03-07T16:56:19.814Z,1.2
2023-03-07T16:57:34.038Z,1.1
2023-03-07T16:58:48.269Z,0.9
2023-03-07T17:00:02.498Z,0.7
2023-03-07T17:01:16.804Z,1.2
2023-03-07T17:02:31.039Z,1
2023-03-07T17:03:45.276Z,2.4
2023-03-07T17:04:59.500Z,1
2023-03-07T17:06:13.717Z,1.3
2023-03-07T17:07:28.025Z,1.5
2023-03-07T17:08:42.258Z,1.3
2023-03-07T17:09:56.488Z,1.3
2023-03-07T17:11:10.722Z,1.2
2023-03-07T17:12:24.944Z,2.2
2023-03-07T17:13:39.239Z,1.5
2023-03-07T17:14:53.481Z,0.9
2023-03-07T17:16:07.704Z,2
2023-03-07T17:17:21.936Z,0.9
2023-03-07T17:19:50.464Z,1.3
2023-03-07T17:21:04.705Z,1.8
2023-03-07T17:22:18.929Z,2
2023-03-07T17:23:33.153Z,1
2023-03-07T17:24:47.456Z,0.9
2023-03-07T17:26:01.756Z,1.2
2023-03-07T17:27:16.038Z,2.5
2023-03-07T17:29:43.552Z,1.4
2023-03-07T17:30:57.844Z,1.8
2023-03-07T17:32:12.092Z,1.3
2023-03-07T17:33:26.320Z,1.4
2023-03-07T17:34:40.552Z,2.8
2023-03-07T17:35:54.776Z,2.8
2023-03-07T17:37:09.080Z,3.1
2023-03-07T17:38:23.309Z,3.5
2023-03-07T17:39:37.590Z,3.1
2023-03-07T17:40:51.921Z,2.2